METAR AND TAF INFORMATION
METAR FOR UAUU
ADDS - METARS form results

(0312 UTC 25 January 2021)
Data provider http://aviationweather.gov/metar/data/
 
METAR text: UAUU 250300Z 30003MPS 9999 -SN OVC043 M06/M07 Q1028 R33/390145 NOSIG RMK QFE755/1007
Conditions at: UAUU (KOSTANAY , KZ) observed 0300 UTC 25 January 2021
Temperature: -6.0°C (21°F)
Dewpoint: -7.0°C (19°F) [RH = 93%]
Pressure (altimeter): 30.35 inches Hg (1028.0 mb)
Winds: from the WNW (300 degrees) at 7 MPH (6 knots; 3.1 m/s)
Visibility: 6 or more miles (10+ km)
Ceiling: 4300 feet AGL
Clouds: overcast cloud deck at 4300 feet AGL
Weather: -SN  (light snow)

METAR text: UAUU 250230Z 30003MPS 9999 -SN OVC028 M06/M07 Q1028 R33/390145 NOSIG RMK QFE755/1007
Conditions at: UAUU (KOSTANAY , KZ) observed 0230 UTC 25 January 2021
Temperature: -6.0°C (21°F)
Dewpoint: -7.0°C (19°F) [RH = 93%]
Pressure (altimeter): 30.35 inches Hg (1028.0 mb)
Winds: from the WNW (300 degrees) at 7 MPH (6 knots; 3.1 m/s)
Visibility: 6 or more miles (10+ km)
Ceiling: 2800 feet AGL
Clouds: overcast cloud deck at 2800 feet AGL
Weather: -SN  (light snow)

Forecast for: UAUU (KOSTANAY , KZ)
Text: TAF UAUU 250201Z 2503/2512 28003G08MPS 3100 -SN BR BKN011
Forecast period: 0300 to 1200 UTC 25 January 2021
Forecast type: FROM: standard forecast or significant change
Winds: from the W (280 degrees) at 7 MPH (6 knots; 3.1 m/s)
gusting to 18 MPH (16 knots; 8.2 m/s)
Visibility: 1.93 miles (3.11 km)
Ceiling: 1100 feet AGL
Clouds: broken clouds at 1100 feet AGL
Weather: -SN BR  (light snow, mist)
Text: TEMPO 2503/2507 0300 -FZDZ FZFG VV002
Forecast period: 0300 to 0700 UTC 25 January 2021
Forecast type: TEMPORARY: The following changes expected for less than half the time period
Visibility: 0.19 miles (0.31 km)
Ceiling: indefinite ceiling with vertical visibility of 200 feet AGL
Clouds: obscured sky
Weather: -FZDZ FZFG  (light freezing drizzle, freezing fog)

 AIRPORT MAP

 RUNWAY INFORMATION

 AIRPORT FREQUENCIES
Type TWR Name TWR Frequency 129.3 MHZ

 AIRPORT NEAR NAVIGATION AIDS
Type NDB Name Kostanay Frequency 512 KHZ
Type NDB Name Kostanay Frequency 512 KHZ



2018 Air Astana Virtual Airline